Time;durP1;ratioP1;P1;durP2;ratioP2;P2;SDS_P1;SDS_P2;PMS_P1;PMS_P2;Temp;Humidity;BMP_temperature;BMP_pressure;BME280_temperature;BME280_humidity;BME280_pressure;Samples;Min_cycle;Max_cycle;Signal;HPM_P1;HPM_P2
2023/08/23 00:00:14;;;;;;;11.25;6.68;;;;;;;26.39;51.82;99775.28;7735944;32;39804;-85
2023/08/23 00:04:34;;;;;;;11.32;6.18;;;;;;;26.21;52.31;99775.84;7747121;32;38667;-86
2023/08/23 00:08:50;;;;;;;9.68;6.55;;;;;;;26.30;52.04;99771.94;7762307;32;37013;-85
2023/08/23 00:13:07;;;;;;;13.13;6.45;;;;;;;26.18;52.52;99773.81;7766766;32;39258;-86
2023/08/23 00:17:23;;;;;;;10.90;6.37;;;;;;;26.08;53.11;99768.06;7756922;32;39561;-87
2023/08/23 00:21:39;;;;;;;10.40;6.37;;;;;;;26.06;53.08;99762.88;7739913;32;38669;-86
2023/08/23 00:25:56;;;;;;;10.27;6.80;;;;;;;26.18;52.89;99754.25;7739487;32;37493;-85
2023/08/23 00:30:12;;;;;;;9.63;6.00;;;;;;;25.99;53.43;99744.03;7739575;32;39468;-86
2023/08/23 00:34:28;;;;;;;10.65;6.87;;;;;;;25.65;54.43;99749.47;7739816;32;40693;-86
2023/08/23 00:38:45;;;;;;;10.20;6.80;;;;;;;25.42;55.47;99748.69;7739375;32;37543;-86
2023/08/23 00:43:02;;;;;;;10.63;6.62;;;;;;;25.61;54.86;99745.81;7755972;32;36775;-86
2023/08/23 00:47:18;;;;;;;11.55;6.53;;;;;;;25.36;55.49;99747.41;7766260;32;39877;-86
2023/08/23 00:51:35;;;;;;;11.12;6.35;;;;;;;25.36;55.47;99753.78;7766050;32;39924;-85
2023/08/23 00:55:51;;;;;;;11.57;6.75;;;;;;;25.42;55.14;99738.34;7766223;32;38487;-87
2023/08/23 01:00:08;;;;;;;14.25;6.55;;;;;;;25.40;55.10;99740.69;7764932;32;37003;-86
2023/08/23 01:04:24;;;;;;;11.15;6.62;;;;;;;25.38;54.97;99740.25;7766006;32;39372;-86
2023/08/23 01:08:47;;;;;;;11.15;6.20;;;;;;;25.40;54.89;99743.47;7740237;32;40469;-86
2023/08/23 01:13:09;;;;;;;11.97;7.30;;;;;;;25.16;55.66;99743.84;7738941;32;38495;-82
2023/08/23 01:17:26;;;;;;;8.75;6.47;;;;;;;25.29;55.23;99745.28;7749504;32;37628;-82
2023/08/23 01:21:43;;;;;;;9.50;6.70;;;;;;;25.33;55.24;99754.53;7765676;32;39426;-82
2023/08/23 01:26:01;;;;;;;8.55;5.87;;;;;;;25.21;55.84;99746.31;7764584;32;40141;-82
2023/08/23 01:30:18;;;;;;;15.65;6.95;;;;;;;25.14;56.23;99743.41;7758373;32;38442;-82
2023/08/23 01:34:37;;;;;;;11.45;6.87;;;;;;;25.11;56.34;99739.38;7737475;32;37069;-81
2023/08/23 01:38:54;;;;;;;11.23;6.75;;;;;;;25.27;55.77;99728.94;7738287;32;39341;-82
2023/08/23 01:43:11;;;;;;;12.02;6.07;;;;;;;25.17;56.05;99735.09;7737435;32;39843;-82
2023/08/23 01:47:27;;;;;;;11.98;6.10;;;;;;;25.24;55.51;99737.22;7738572;32;37927;-81
2023/08/23 01:51:43;;;;;;;13.15;6.87;;;;;;;25.15;55.21;99737.47;7738463;32;37790;-81
2023/08/23 01:56:00;;;;;;;12.27;6.18;;;;;;;25.24;54.61;99729.63;7753446;32;39163;-81
2023/08/23 02:00:16;;;;;;;11.35;6.68;;;;;;;25.17;54.72;99729.53;7765350;32;40998;-80
2023/08/23 02:04:33;;;;;;;14.30;7.22;;;;;;;25.19;54.62;99726.37;7765321;32;37642;-81
2023/08/23 02:08:50;;;;;;;11.90;6.55;;;;;;;25.23;54.76;99718.84;7765366;32;36786;-81
2023/08/23 02:13:06;;;;;;;10.90;7.30;;;;;;;25.10;55.14;99729.41;7765271;32;39963;-80
2023/08/23 02:17:23;;;;;;;10.68;7.20;;;;;;;24.93;56.11;99720.34;7751780;32;40848;-80
2023/08/23 02:21:39;;;;;;;10.57;6.78;;;;;;;24.90;56.36;99715.50;7760595;32;37528;-81
2023/08/23 02:25:55;;;;;;;8.73;6.65;;;;;;;24.95;56.28;99711.59;7765128;32;37628;-81
2023/08/23 02:30:12;;;;;;;10.63;6.50;;;;;;;24.79;56.99;99713.72;7765156;32;39290;-81
2023/08/23 02:34:29;;;;;;;13.85;7.12;;;;;;;25.07;56.01;99710.63;7764048;32;40517;-81
2023/08/23 02:38:45;;;;;;;9.13;6.43;;;;;;;24.88;56.35;99708.69;7764902;32;37714;-81
2023/08/23 02:43:02;;;;;;;11.40;6.55;;;;;;;24.81;56.27;99716.94;7761601;32;37124;-81
2023/08/23 02:47:18;;;;;;;10.18;6.85;;;;;;;24.76;56.44;99711.66;7737937;32;39946;-80
2023/08/23 02:51:34;;;;;;;10.80;6.62;;;;;;;24.76;56.54;99708.88;7737605;32;40909;-81
2023/08/23 02:55:50;;;;;;;11.93;6.57;;;;;;;24.70;56.90;99706.38;7737655;32;37978;-80
2023/08/23 03:00:08;;;;;;;10.85;6.95;;;;;;;24.77;56.67;99710.47;7737593;32;36694;-81
2023/08/23 03:04:24;;;;;;;13.82;7.50;;;;;;;24.82;56.50;99710.16;7737524;32;39256;-81
2023/08/23 03:08:40;;;;;;;12.70;6.87;;;;;;;24.80;56.84;99712.50;7747768;32;40080;-80
2023/08/23 03:12:56;;;;;;;10.93;6.85;;;;;;;24.57;57.69;99702.13;7764133;32;38846;-81
2023/08/23 03:17:13;;;;;;;11.45;7.18;;;;;;;24.60;57.46;99704.19;7741397;32;36703;-81
2023/08/23 03:21:29;;;;;;;10.57;7.12;;;;;;;24.56;57.50;99711.69;7737248;32;38877;-81
2023/08/23 03:25:49;;;;;;;11.40;6.80;;;;;;;24.51;57.65;99709.19;7739506;32;39948;-81
2023/08/23 03:30:06;;;;;;;12.95;6.85;;;;;;;24.61;57.29;99700.25;7763937;32;38820;-80
2023/08/23 03:34:22;;;;;;;11.00;7.05;;;;;;;24.52;57.57;99697.63;7744878;32;37173;-81
2023/08/23 03:38:39;;;;;;;11.15;7.57;;;;;;;24.47;57.76;99691.56;7736732;32;38961;-81
2023/08/23 03:42:55;;;;;;;12.63;7.10;;;;;;;24.52;57.66;99694.03;7737245;32;40626;-80
2023/08/23 03:47:11;;;;;;;12.25;8.02;;;;;;;24.42;58.07;99694.66;7739874;32;38735;-81
2023/08/23 03:51:28;;;;;;;10.80;7.35;;;;;;;24.48;58.05;99688.41;7740121;32;37198;-81
2023/08/23 03:55:50;;;;;;;12.55;7.05;;;;;;;24.55;58.10;99683.00;7739784;32;39250;-80
2023/08/23 04:00:07;;;;;;;14.45;7.53;;;;;;;24.46;58.16;99678.81;7740666;32;41102;-80
2023/08/23 04:04:24;;;;;;;12.35;7.10;;;;;;;24.37;58.12;99677.06;7739622;32;37887;-81
2023/08/23 04:08:40;;;;;;;11.43;7.25;;;;;;;24.37;58.17;99668.72;7739668;32;37904;-80
2023/08/23 04:12:56;;;;;;;11.95;6.62;;;;;;;24.37;58.15;99677.06;7739624;32;40189;-80
2023/08/23 04:17:13;;;;;;;11.80;7.25;;;;;;;24.52;58.00;99666.19;7763167;32;39660;-81
2023/08/23 04:21:29;;;;;;;13.98;7.00;;;;;;;24.23;59.15;99660.03;7766457;32;38441;-81
2023/08/23 04:25:45;;;;;;;14.40;7.45;;;;;;;24.40;58.77;99658.78;7766595;32;37138;-81
2023/08/23 04:30:02;;;;;;;12.43;7.10;;;;;;;24.47;58.53;99663.69;7740472;32;40018;-80
2023/08/23 04:34:18;;;;;;;11.88;6.80;;;;;;;24.49;58.56;99666.91;7738170;32;39996;-81
2023/08/23 04:38:35;;;;;;;13.23;7.40;;;;;;;24.49;58.92;99675.28;7739432;32;37586;-81
2023/08/23 04:42:51;;;;;;;11.95;7.55;;;;;;;24.57;58.97;99671.50;7739399;32;36988;-81
2023/08/23 04:47:07;;;;;;;11.38;7.50;;;;;;;24.68;58.88;99664.16;7739303;32;40005;-80
2023/08/23 04:51:24;;;;;;;11.68;7.00;;;;;;;24.64;59.31;99677.19;7739215;32;40082;-80
2023/08/23 04:55:40;;;;;;;11.68;7.25;;;;;;;24.70;59.12;99677.72;7738542;32;38779;-81
2023/08/23 04:59:57;;;;;;;11.18;6.97;;;;;;;24.71;59.10;99668.94;7749951;32;37776;-80
2023/08/23 05:04:13;;;;;;;10.57;7.18;;;;;;;24.77;58.77;99672.25;7738955;32;39912;-81
2023/08/23 05:08:30;;;;;;;14.52;7.15;;;;;;;24.92;58.22;99670.50;7738789;32;40881;-81
2023/08/23 05:12:46;;;;;;;17.30;7.70;;;;;;;24.74;59.26;99682.16;7738739;32;38122;-80
2023/08/23 05:17:03;;;;;;;12.75;7.22;;;;;;;24.94;58.85;99687.69;7738865;32;36699;-81
2023/08/23 05:21:19;;;;;;;12.00;7.40;;;;;;;24.92;59.21;99687.25;7738968;32;38955;-81
2023/08/23 05:25:35;;;;;;;15.15;7.22;;;;;;;25.05;58.96;99680.31;7739663;32;39927;-80
2023/08/23 05:29:52;;;;;;;13.90;7.12;;;;;;;25.18;58.44;99683.72;7738509;32;37808;-79
2023/08/23 05:34:08;;;;;;;10.13;7.03;;;;;;;25.33;57.49;99693.12;7738572;32;36761;-72
2023/08/23 05:38:24;;;;;;;10.88;6.85;;;;;;;25.65;56.77;99698.44;7738613;32;39471;-71
2023/08/23 05:42:41;;;;;;;13.88;7.60;;;;;;;25.77;55.85;99692.62;7731650;32;40753;-71
2023/08/23 05:46:57;;;;;;;10.68;7.00;;;;;;;26.05;55.12;99702.59;7737983;32;37569;-70
2023/08/23 05:51:13;;;;;;;14.52;7.97;;;;;;;26.30;54.46;99691.75;7753641;32;37056;-71
2023/08/23 05:55:29;;;;;;;12.02;8.27;;;;;;;26.48;53.80;99705.91;7764069;32;39286;-70
2023/08/23 05:59:46;;;;;;;14.07;8.57;;;;;;;26.68;53.34;99711.34;7748840;32;40864;-70
2023/08/23 06:04:02;;;;;;;14.55;7.78;;;;;;;26.87;53.06;99711.16;7737169;32;37821;-71
2023/08/23 06:08:18;;;;;;;11.25;7.53;;;;;;;27.03;52.99;99712.88;7744719;32;37143;-71
2023/08/23 06:12:34;;;;;;;15.68;7.90;;;;;;;26.97;53.52;99721.66;7763918;32;39343;-67
2023/08/23 06:16:51;;;;;;;14.43;7.72;;;;;;;27.16;53.36;99712.25;7764714;32;39625;-70
2023/08/23 06:21:07;;;;;;;16.50;7.68;;;;;;;27.22;54.50;99726.66;7764459;32;37569;-70
2023/08/23 06:25:24;;;;;;;13.07;7.95;;;;;;;27.10;54.12;99729.75;7763241;32;37841;-70
2023/08/23 06:29:40;;;;;;;14.50;8.02;;;;;;;27.11;54.21;99722.97;7761996;32;40060;-71
2023/08/23 06:33:57;;;;;;;14.95;8.40;;;;;;;27.25;53.27;99714.72;7737601;32;40565;-72
2023/08/23 06:38:15;;;;;;;15.73;8.80;;;;;;;27.34;52.70;99718.00;7736485;32;38403;-70
2023/08/23 06:42:32;;;;;;;12.48;8.63;;;;;;;27.73;52.90;99711.87;7737600;32;37968;-73
2023/08/23 06:46:48;;;;;;;16.37;8.85;;;;;;;27.48;53.18;99710.91;7737555;32;39223;-74
2023/08/23 06:51:04;;;;;;;14.93;8.68;;;;;;;27.29;53.88;99704.37;7737554;32;40028;-71
2023/08/23 06:55:21;;;;;;;12.40;8.45;;;;;;;27.45;53.12;99698.47;7737400;32;38331;-71
2023/08/23 06:59:37;;;;;;;11.50;8.40;;;;;;;28.22;51.93;99697.75;7737505;32;36760;-72
2023/08/23 07:03:53;;;;;;;11.88;8.23;;;;;;;27.61;52.29;99709.38;7758433;32;39361;-72
2023/08/23 07:08:11;;;;;;;13.07;8.93;;;;;;;27.69;52.72;99713.84;7762764;32;39920;-73
2023/08/23 07:12:28;;;;;;;13.43;9.13;;;;;;;27.78;51.43;99707.09;7764183;32;38691;-71
2023/08/23 07:16:44;;;;;;;12.65;9.57;;;;;;;27.83;52.72;99721.53;7763754;32;37039;-74
2023/08/23 07:21:02;;;;;;;15.85;9.15;;;;;;;28.40;50.04;99715.44;7763645;32;39406;-72
2023/08/23 07:25:19;;;;;;;12.35;8.93;;;;;;;28.46;50.10;99730.69;7763899;32;38960;-73
2023/08/23 07:29:38;;;;;;;16.98;8.68;;;;;;;28.59;50.12;99730.34;7763431;32;37683;-72
2023/08/23 07:33:54;;;;;;;15.40;8.52;;;;;;;29.02;49.55;99734.03;7763617;32;37932;-85
2023/08/23 07:38:10;;;;;;;18.45;8.55;;;;;;;29.20;49.35;99739.72;7751024;32;39322;-83
2023/08/23 07:42:27;;;;;;;16.75;9.05;;;;;;;29.47;49.28;99739.31;7736480;32;39647;-83
2023/08/23 07:46:44;;;;;;;12.32;8.60;;;;;;;29.73;47.43;99734.47;7736475;32;38921;-82
2023/08/23 07:51:00;;;;;;;14.10;8.50;;;;;;;29.73;47.56;99738.06;7741385;32;37024;-79
2023/08/23 07:55:16;;;;;;;20.05;9.43;;;;;;;29.49;47.48;99750.16;7756695;32;40037;-78
2023/08/23 07:59:33;;;;;;;15.55;9.65;;;;;;;29.83;47.42;99755.38;7736073;32;40004;-78
2023/08/23 08:03:51;;;;;;;15.05;8.90;;;;;;;29.53;48.04;99751.75;7735911;32;38110;-78
2023/08/23 08:08:08;;;;;;;13.80;8.73;;;;;;;29.54;49.30;99744.91;7746297;32;36089;-81
2023/08/23 08:12:25;;;;;;;11.77;8.98;;;;;;;29.79;48.30;99758.19;7761402;32;38933;-78
2023/08/23 08:16:41;;;;;;;15.70;9.63;;;;;;;30.10;47.32;99750.09;7762313;32;40856;-78
2023/08/23 08:20:59;;;;;;;14.95;9.63;;;;;;;30.19;46.89;99747.66;7762108;32;37934;-78
2023/08/23 08:25:16;;;;;;;15.45;10.38;;;;;;;30.11;47.48;99741.25;7762428;32;37517;-79
2023/08/23 08:29:32;;;;;;;17.87;9.73;;;;;;;30.47;47.39;99731.91;7749866;32;39291;-80
2023/08/23 08:33:49;;;;;;;15.43;9.82;;;;;;;30.33;48.10;99738.34;7761906;32;39902;-80
2023/08/23 08:38:06;;;;;;;16.35;10.15;;;;;;;29.78;49.14;99742.53;7739437;32;38067;-80
2023/08/23 08:42:23;;;;;;;14.80;9.88;;;;;;;30.15;47.72;99741.25;7739288;32;37888;-80
2023/08/23 08:46:40;;;;;;;12.70;9.55;;;;;;;30.06;48.47;99749.28;7739395;32;38952;-80
2023/08/23 08:50:58;;;;;;;14.38;9.93;;;;;;;30.34;47.35;99754.81;7747631;32;39860;-80
2023/08/23 08:55:18;;;;;;;13.82;10.20;;;;;;;30.20;48.68;99757.69;7747652;32;38006;-80
2023/08/23 08:59:35;;;;;;;14.87;10.95;;;;;;;30.43;48.47;99745.97;7758055;32;37779;-81
2023/08/23 09:03:51;;;;;;;13.10;9.55;;;;;;;30.39;47.23;99750.81;7764798;32;39837;-80
2023/08/23 09:08:08;;;;;;;17.62;9.88;;;;;;;30.80;46.97;99746.59;7764883;32;39996;-80
2023/08/23 09:12:24;;;;;;;17.87;10.10;;;;;;;30.68;46.86;99751.50;7765987;32;38548;-80
2023/08/23 09:16:40;;;;;;;20.05;9.95;;;;;;;30.65;46.89;99751.47;7765600;32;37168;-80
2023/08/23 09:20:57;;;;;;;17.60;10.18;;;;;;;30.44;48.15;99758.84;7765694;32;39152;-81
2023/08/23 09:25:13;;;;;;;14.35;9.82;;;;;;;30.75;47.12;99758.28;7765694;32;40823;-81
2023/08/23 09:29:29;;;;;;;15.68;10.50;;;;;;;30.99;47.28;99746.09;7765616;32;38101;-80
2023/08/23 09:33:46;;;;;;;25.73;10.50;;;;;;;31.09;46.16;99750.03;7755248;32;37163;-80
2023/08/23 09:38:04;;;;;;;21.33;9.95;;;;;;;31.45;46.57;99747.75;7741325;32;39942;-82
2023/08/23 09:42:21;;;;;;;13.95;9.27;;;;;;;31.80;45.96;99745.03;7738880;32;40086;-80
2023/08/23 09:46:40;;;;;;;13.68;9.55;;;;;;;31.86;45.33;99745.38;7758889;32;35864;-78
2023/08/23 09:50:58;;;;;;;12.50;9.32;;;;;;;31.81;44.89;99733.34;7763721;32;36704;-80
2023/08/23 09:55:14;;;;;;;14.02;10.10;;;;;;;31.66;45.44;99729.06;7737188;32;39200;-80
2023/08/23 09:59:32;;;;;;;14.25;9.95;;;;;;;31.97;45.62;99727.13;7743599;32;39312;-86
2023/08/23 10:03:48;;;;;;;15.20;9.90;;;;;;;31.91;45.33;99731.66;7759702;32;38846;-83
2023/08/23 10:08:05;;;;;;;15.57;9.90;;;;;;;32.06;45.21;99731.50;7755538;32;36916;-82
2023/08/23 10:12:22;;;;;;;17.23;9.00;;;;;;;32.37;45.14;99733.16;7763860;32;39317;-81
2023/08/23 10:16:38;;;;;;;12.93;8.90;;;;;;;32.99;43.55;99721.81;7743825;32;40795;-81
2023/08/23 10:20:55;;;;;;;14.10;9.48;;;;;;;33.07;41.83;99725.34;7749322;32;38657;-82
2023/08/23 10:25:17;;;;;;;13.62;9.02;;;;;;;33.36;41.21;99722.88;7751216;32;37730;-82
2023/08/23 10:29:37;;;;;;;14.73;8.88;;;;;;;32.59;42.48;99712.31;7744099;32;39144;-81
2023/08/23 10:33:57;;;;;;;11.07;7.85;;;;;;;33.57;41.01;99710.41;7744587;32;39628;-81
2023/08/23 10:38:14;;;;;;;14.32;8.23;;;;;;;33.54;40.69;99704.81;7751215;32;37870;-83
2023/08/23 10:42:31;;;;;;;10.95;7.45;;;;;;;33.98;38.97;99699.94;7749359;32;37188;-80
2023/08/23 10:46:52;;;;;;;13.20;8.10;;;;;;;33.79;38.65;99698.72;7760987;32;39945;-84
2023/08/23 10:51:10;;;;;;;13.10;7.70;;;;;;;33.78;38.32;99694.31;7744797;32;39922;-83
2023/08/23 10:55:26;;;;;;;13.90;7.25;;;;;;;33.84;39.34;99686.91;7737305;32;38629;-80
2023/08/23 10:59:43;;;;;;;10.25;7.18;;;;;;;34.28;38.74;99684.81;7735987;32;37091;-82
2023/08/23 11:04:02;;;;;;;12.75;7.65;;;;;;;34.65;36.93;99674.31;7736852;32;40044;-82
2023/08/23 11:08:18;;;;;;;16.60;7.97;;;;;;;35.26;36.03;99669.25;7736332;32;40800;-82
2023/08/23 11:12:35;;;;;;;12.95;6.43;;;;;;;34.83;37.23;99667.47;7736821;32;38769;-84
2023/08/23 11:16:52;;;;;;;12.55;6.47;;;;;;;35.55;33.34;99663.63;7740729;32;37029;-82
2023/08/23 11:21:09;;;;;;;10.93;6.10;;;;;;;35.28;34.51;99667.56;7736388;32;40079;-82
2023/08/23 11:25:25;;;;;;;11.90;6.07;;;;;;;35.04;34.22;99654.81;7736672;32;39765;-83
2023/08/23 11:29:43;;;;;;;10.90;6.60;;;;;;;35.35;34.00;99658.84;7736351;32;37999;-83
2023/08/23 11:34:05;;;;;;;10.68;6.50;;;;;;;34.30;36.15;99662.56;7738391;32;36700;-82
2023/08/23 11:38:27;;;;;;;8.32;5.47;;;;;;;34.57;33.88;99655.91;7750185;32;39283;-82
2023/08/23 11:42:44;;;;;;;9.18;5.90;;;;;;;35.23;34.02;99653.13;7740901;32;40859;-80
2023/08/23 11:47:01;;;;;;;12.35;6.05;;;;;;;35.65;33.05;99647.53;7736332;32;38613;-83
2023/08/23 11:51:17;;;;;;;14.15;5.97;;;;;;;36.13;32.87;99654.28;7736406;32;36912;-83
2023/08/23 11:55:37;;;;;;;17.33;6.53;;;;;;;36.64;31.93;99643.00;7736209;32;40017;-83
2023/08/23 11:59:53;;;;;;;8.65;5.60;;;;;;;37.09;31.29;99655.38;7736132;32;40548;-82
2023/08/23 12:04:13;;;;;;;10.85;5.90;;;;;;;36.23;31.51;99650.37;7736029;32;37838;-82
2023/08/23 12:08:29;;;;;;;8.77;5.40;;;;;;;36.74;31.94;99640.28;7739677;32;36702;-82
2023/08/23 12:12:45;;;;;;;8.65;4.97;;;;;;;36.47;29.95;99644.38;7739691;32;39049;-82
2023/08/23 12:17:02;;;;;;;9.70;4.32;;;;;;;36.92;29.82;99645.41;7739176;32;40077;-83
2023/08/23 12:21:18;;;;;;;10.48;4.45;;;;;;;36.72;28.03;99648.47;7739451;32;38761;-82
2023/08/23 12:25:35;;;;;;;7.07;4.68;;;;;;;35.63;30.31;99645.16;7739713;32;38512;-82
2023/08/23 12:29:51;;;;;;;8.38;4.10;;;;;;;36.09;29.39;99643.06;7739526;32;38892;-82
2023/08/23 12:34:07;;;;;;;6.53;3.83;;;;;;;35.17;30.61;99647.97;7739327;32;40598;-82
2023/08/23 12:38:23;;;;;;;6.45;4.22;;;;;;;35.34;30.17;99639.47;7739310;32;38070;-81
2023/08/23 12:42:40;;;;;;;11.07;4.32;;;;;;;35.69;30.65;99651.88;7739334;32;37076;-81
2023/08/23 12:46:57;;;;;;;9.05;4.78;;;;;;;35.85;31.82;99631.19;7739178;32;39011;-82
2023/08/23 12:51:14;;;;;;;8.57;4.62;;;;;;;35.87;31.83;99634.38;7749917;32;40052;-82
2023/08/23 12:55:30;;;;;;;8.45;5.03;;;;;;;35.64;32.42;99637.47;7752336;32;38759;-82
2023/08/23 12:59:47;;;;;;;13.20;5.57;;;;;;;35.24;32.92;99632.03;7751402;32;36867;-83
2023/08/23 13:04:04;;;;;;;9.18;5.35;;;;;;;34.57;34.40;99633.25;7750143;32;39717;-82
2023/08/23 13:08:20;;;;;;;7.53;4.55;;;;;;;34.82;33.90;99627.00;7742142;32;39881;-83
2023/08/23 13:12:36;;;;;;;7.30;4.68;;;;;;;34.75;34.09;99611.00;7738942;32;37987;-83
2023/08/23 13:16:53;;;;;;;9.52;4.57;;;;;;;34.79;32.77;99613.75;7747230;32;37608;-83
2023/08/23 13:21:09;;;;;;;7.87;4.50;;;;;;;35.43;32.72;99602.81;7752072;32;39031;-82
2023/08/23 13:25:26;;;;;;;10.27;4.95;;;;;;;36.21;31.47;99598.97;7751816;32;39868;-82
2023/08/23 13:29:44;;;;;;;8.98;4.50;;;;;;;36.50;30.46;99597.25;7750812;32;38481;-82
2023/08/23 13:34:00;;;;;;;9.85;4.60;;;;;;;37.35;28.92;99598.50;7750054;32;37047;-82
2023/08/23 13:38:17;;;;;;;8.32;4.05;;;;;;;37.26;27.18;99607.72;7751664;32;40063;-83
2023/08/23 13:42:33;;;;;;;8.48;3.70;;;;;;;36.16;30.50;99590.97;7750635;32;39569;-82
2023/08/23 13:46:52;;;;;;;6.72;3.95;;;;;;;36.05;29.46;99579.19;7761654;32;37231;-83
2023/08/23 13:51:09;;;;;;;8.85;4.28;;;;;;;35.29;30.95;99591.84;7747493;32;37752;-73
2023/08/23 13:55:26;;;;;;;8.20;4.32;;;;;;;34.86;30.94;99590.09;7737466;32;40490;-82
2023/08/23 13:59:43;;;;;;;9.15;4.47;;;;;;;35.25;32.38;99588.31;7742915;32;40044;-82
2023/08/23 14:04:00;;;;;;;9.02;4.05;;;;;;;36.01;31.27;99590.59;7762347;32;37684;-83
2023/08/23 14:08:16;;;;;;;10.25;4.05;;;;;;;35.65;30.46;99597.34;7764973;32;37733;-83
2023/08/23 14:12:33;;;;;;;6.37;3.35;;;;;;;36.25;29.49;99605.31;7764076;32;39379;-82
2023/08/23 14:16:50;;;;;;;6.28;3.80;;;;;;;35.86;27.91;99621.47;7764962;32;39622;-83
2023/08/23 14:21:08;;;;;;;6.45;3.70;;;;;;;36.02;28.32;99622.63;7764317;32;38026;-82
2023/08/23 14:25:25;;;;;;;7.15;4.18;;;;;;;36.01;28.44;99624.66;7764879;32;35877;-82
2023/08/23 14:29:42;;;;;;;9.77;3.75;;;;;;;36.10;28.99;99627.63;7763646;32;39602;-82
2023/08/23 14:33:58;;;;;;;5.60;3.65;;;;;;;36.39;29.56;99620.31;7763756;32;40790;-83
2023/08/23 14:38:15;;;;;;;5.95;3.78;;;;;;;35.49;31.25;99629.34;7764758;32;38459;-83
2023/08/23 14:42:31;;;;;;;8.93;3.92;;;;;;;34.83;30.78;99627.81;7763745;32;37045;-82
2023/08/23 14:46:48;;;;;;;5.40;3.45;;;;;;;34.75;31.78;99639.31;7764764;32;39218;-83
2023/08/23 14:51:05;;;;;;;9.00;4.10;;;;;;;34.23;33.00;99640.88;7764211;32;38592;-82
2023/08/23 14:55:22;;;;;;;8.48;4.30;;;;;;;33.90;34.18;99648.41;7763929;32;38709;-82
2023/08/23 14:59:41;;;;;;;11.52;5.22;;;;;;;33.84;34.45;99650.97;7764288;32;36712;-82
2023/08/23 15:03:57;;;;;;;8.88;4.45;;;;;;;33.40;35.91;99643.72;7763525;32;38357;-83
2023/08/23 15:08:14;;;;;;;8.85;4.07;;;;;;;33.42;36.54;99656.16;7764391;32;40878;-83
2023/08/23 15:12:30;;;;;;;10.38;4.53;;;;;;;32.98;36.93;99646.84;7763391;32;37831;-83
2023/08/23 15:16:47;;;;;;;8.65;4.00;;;;;;;33.07;35.38;99649.13;7762222;32;37583;-82
2023/08/23 15:21:04;;;;;;;7.43;3.78;;;;;;;33.37;34.96;99650.22;7763666;32;39317;-83
2023/08/23 15:25:20;;;;;;;8.63;3.65;;;;;;;33.74;33.81;99645.50;7762279;32;39756;-83
2023/08/23 15:29:41;;;;;;;7.93;3.90;;;;;;;33.71;33.51;99655.66;7763466;32;37898;-82
2023/08/23 15:34:16;;;;;;;9.45;3.80;;;;;;;33.76;33.16;99660.03;7762455;32;37845;-82
2023/08/23 15:38:32;;;;;;;6.60;3.35;;;;;;;34.30;32.58;99648.41;7763785;32;39152;-83
2023/08/23 15:42:48;;;;;;;10.30;3.80;;;;;;;34.73;31.85;99650.28;7766912;32;39985;-83
2023/08/23 15:47:05;;;;;;;5.62;3.50;;;;;;;34.66;31.78;99646.81;7765533;32;38208;-83
2023/08/23 15:51:21;;;;;;;9.20;4.35;;;;;;;35.07;31.35;99649.03;7765772;32;37483;-83
2023/08/23 15:55:37;;;;;;;6.70;4.03;;;;;;;35.03;30.70;99641.88;7766965;32;38945;-83
2023/08/23 15:59:53;;;;;;;6.12;3.70;;;;;;;35.23;32.11;99651.09;7766755;32;40852;-83
2023/08/23 16:04:10;;;;;;;8.18;4.40;;;;;;;34.73;32.37;99636.13;7766969;32;38200;-83
2023/08/23 16:08:27;;;;;;;10.00;4.20;;;;;;;34.95;32.05;99629.94;7766838;32;37045;-84
2023/08/23 16:12:43;;;;;;;7.57;4.20;;;;;;;35.04;31.64;99641.44;7766789;32;39295;-83
2023/08/23 16:16:59;;;;;;;10.90;4.37;;;;;;;34.91;32.37;99629.22;7765011;32;40452;-84
2023/08/23 16:21:15;;;;;;;6.53;4.00;;;;;;;35.10;31.85;99617.00;7766635;32;37995;-84
2023/08/23 16:25:32;;;;;;;6.28;3.87;;;;;;;34.78;31.85;99612.94;7766646;32;37912;-84
2023/08/23 16:29:48;;;;;;;4.93;3.37;;;;;;;34.32;33.00;99617.63;7766608;32;39987;-84
2023/08/23 16:34:05;;;;;;;6.45;3.72;;;;;;;34.50;32.75;99622.13;7766495;32;40771;-83
2023/08/23 16:38:21;;;;;;;6.15;3.58;;;;;;;34.21;32.88;99622.75;7765147;32;37898;-83
2023/08/23 16:42:40;;;;;;;9.68;4.00;;;;;;;34.39;32.91;99623.16;7766373;32;37008;-84
2023/08/23 16:46:56;;;;;;;7.40;4.05;;;;;;;34.34;33.32;99635.00;7766432;32;39280;-84
2023/08/23 16:51:13;;;;;;;10.23;4.37;;;;;;;34.18;33.09;99640.56;7765857;32;40048;-84
2023/08/23 16:55:33;;;;;;;12.32;4.30;;;;;;;33.98;33.60;99646.22;7766170;32;38417;-84
2023/08/23 16:59:51;;;;;;;9.32;4.05;;;;;;;34.15;33.52;99642.25;7766212;32;37068;-83
2023/08/23 17:04:07;;;;;;;7.25;3.92;;;;;;;34.11;33.57;99646.38;7764806;32;39988;-84
2023/08/23 17:08:23;;;;;;;8.48;4.20;;;;;;;33.83;34.04;99642.91;7755549;32;40597;-83
2023/08/23 17:12:40;;;;;;;8.55;4.22;;;;;;;33.58;34.94;99655.50;7751345;32;37964;-82
2023/08/23 17:16:56;;;;;;;6.80;4.10;;;;;;;33.68;34.31;99643.22;7751764;32;36965;-83
2023/08/23 17:21:13;;;;;;;10.85;4.20;;;;;;;34.27;33.62;99642.81;7750825;32;39321;-83
2023/08/23 17:25:29;;;;;;;10.07;4.05;;;;;;;34.41;33.11;99643.31;7737880;32;39671;-83
2023/08/23 17:29:45;;;;;;;10.60;4.00;;;;;;;34.16;34.34;99648.69;7737294;32;37591;-83
2023/08/23 17:34:02;;;;;;;6.70;4.20;;;;;;;33.86;33.77;99656.19;7738767;32;37173;-84
2023/08/23 17:38:18;;;;;;;7.15;4.18;;;;;;;33.46;35.25;99659.75;7738488;32;39198;-84
2023/08/23 17:42:37;;;;;;;13.40;4.35;;;;;;;32.99;35.69;99658.91;7737849;32;40810;-85
2023/08/23 17:46:53;;;;;;;19.15;4.78;;;;;;;32.65;37.00;99659.84;7738641;32;36966;-85
2023/08/23 17:51:09;;;;;;;16.62;4.47;;;;;;;32.45;36.91;99683.06;7738472;32;37555;-85
2023/08/23 17:55:25;;;;;;;10.25;4.40;;;;;;;32.10;37.42;99690.78;7738602;32;40096;-85
2023/08/23 17:59:46;;;;;;;11.50;4.15;;;;;;;31.76;38.64;99693.56;7738476;32;40813;-86
2023/08/23 18:04:06;;;;;;;10.50;4.37;;;;;;;31.57;39.11;99703.41;7750305;32;37851;-85
2023/08/23 18:08:22;;;;;;;9.75;4.57;;;;;;;31.36;39.03;99710.03;7737592;32;36969;-87
2023/08/23 18:12:38;;;;;;;8.30;4.07;;;;;;;31.26;39.72;99708.91;7737744;32;39420;-86
2023/08/23 18:16:56;;;;;;;8.80;4.45;;;;;;;31.08;40.29;99712.66;7774405;32;40153;-85
2023/08/23 18:21:14;;;;;;;9.18;4.30;;;;;;;30.81;41.04;99714.44;7774788;32;38678;-83
2023/08/23 18:25:32;;;;;;;10.50;4.28;;;;;;;30.67;41.08;99720.94;7751159;32;37017;-84
2023/08/23 18:29:48;;;;;;;15.07;5.05;;;;;;;30.54;41.30;99717.78;7749989;32;39993;-84
2023/08/23 18:34:07;;;;;;;13.02;4.72;;;;;;;30.31;41.83;99727.50;7751611;32;40862;-84
2023/08/23 18:38:31;;;;;;;12.60;5.03;;;;;;;30.34;41.69;99723.09;7749807;32;38923;-84
2023/08/23 18:42:49;;;;;;;11.80;5.53;;;;;;;30.14;41.97;99731.97;7751151;32;37863;-85
2023/08/23 18:47:06;;;;;;;9.80;4.53;;;;;;;30.04;41.47;99734.84;7744983;32;39354;-82
2023/08/23 18:51:22;;;;;;;14.40;5.10;;;;;;;29.98;41.45;99747.69;7749012;32;40035;-83
2023/08/23 18:55:40;;;;;;;12.35;5.65;;;;;;;29.80;42.34;99754.16;7747107;32;37979;-84
2023/08/23 19:00:01;;;;;;;18.17;6.80;;;;;;;29.75;42.18;99758.16;7750765;32;37779;-84
2023/08/23 19:04:18;;;;;;;24.65;8.60;;;;;;;29.66;42.61;99766.19;7749618;32;39214;-85
2023/08/23 19:08:37;;;;;;;11.45;6.78;;;;;;;29.54;42.85;99758.97;7750906;32;40100;-86
2023/08/23 19:12:55;;;;;;;19.12;7.37;;;;;;;29.85;42.19;99762.16;7750890;32;37724;-85
2023/08/23 19:17:11;;;;;;;11.77;6.03;;;;;;;29.60;42.53;99770.63;7752329;32;37102;-86
2023/08/23 19:21:28;;;;;;;8.38;4.93;;;;;;;29.47;42.69;99781.44;7768618;32;39250;-84
2023/08/23 19:25:45;;;;;;;8.60;5.30;;;;;;;29.41;43.13;99794.28;7773229;32;39797;-82
2023/08/23 19:30:03;;;;;;;8.02;4.72;;;;;;;29.08;44.06;99801.00;7779811;32;38681;-80
2023/08/23 19:34:20;;;;;;;11.50;5.72;;;;;;;29.04;44.16;99809.41;7791013;32;37688;-82
2023/08/23 19:38:38;;;;;;;9.05;4.55;;;;;;;28.97;44.42;99809.41;7790853;32;39283;-80
2023/08/23 19:42:56;;;;;;;10.00;5.03;;;;;;;28.97;44.89;99809.41;7770189;32;39957;-80
2023/08/23 19:47:12;;;;;;;7.22;4.53;;;;;;;28.97;44.79;99824.22;7763525;32;38072;-83
2023/08/23 19:51:30;;;;;;;6.37;4.00;;;;;;;28.88;45.26;99823.00;7771853;32;36952;-82
2023/08/23 19:55:47;;;;;;;8.32;4.25;;;;;;;28.82;45.27;99826.19;7778049;32;39979;-80